Time;durP1;ratioP1;P1;durP2;ratioP2;P2;SDS_P1;SDS_P2;PMS_P1;PMS_P2;Temp;Humidity;BMP_temperature;BMP_pressure;BME280_temperature;BME280_humidity;BME280_pressure;Samples;Min_cycle;Max_cycle;Signal;HPM_P1;HPM_P2
2022/10/06 00:02:09;;;;;;;;;;;11.30;99.90;;;;;;5084692;28;19921;-71
2022/10/06 00:04:36;;;;;;;;;;;11.30;99.90;;;;;;5084399;28;19960;-71
2022/10/06 00:07:03;;;;;;;;;;;11.30;99.90;;;;;;5084645;28;19920;-72
2022/10/06 00:09:29;;;;;;;;;;;11.20;99.90;;;;;;5084337;28;19926;-71
2022/10/06 00:11:56;;;;;;;;;;;11.20;99.90;;;;;;5084653;28;19991;-71
2022/10/06 00:14:22;;;;;;;;;;;11.20;99.90;;;;;;5084407;28;19920;-71
2022/10/06 00:16:50;;;;;;;;;;;11.10;99.90;;;;;;5084107;28;19979;-73
2022/10/06 00:19:17;;;;;;;;;;;11.10;99.90;;;;;;5084235;28;20199;-71
2022/10/06 00:21:44;;;;;;;;;;;11.10;99.90;;;;;;5084514;28;19920;-71
2022/10/06 00:24:10;;;;;;;;;;;11.10;99.90;;;;;;5083886;28;19983;-71
2022/10/06 00:26:37;;;;;;;;;;;11.00;99.90;;;;;;5084104;28;19963;-70
2022/10/06 00:29:04;;;;;;;;;;;11.00;99.90;;;;;;5084304;28;19920;-71
2022/10/06 00:31:31;;;;;;;;;;;11.00;99.90;;;;;;5084343;28;19921;-71
2022/10/06 00:33:59;;;;;;;;;;;11.00;99.90;;;;;;5084291;28;19952;-73
2022/10/06 00:36:27;;;;;;;;;;;11.00;99.90;;;;;;5083594;28;19930;-70
2022/10/06 00:38:53;;;;;;;;;;;11.00;99.90;;;;;;5084133;28;20172;-71
2022/10/06 00:41:20;;;;;;;;;;;10.90;99.90;;;;;;5084109;28;19991;-71
2022/10/06 00:43:48;;;;;;;;;;;10.90;99.90;;;;;;5083615;28;20111;-72
2022/10/06 00:46:17;;;;;;;;;;;10.80;99.90;;;;;;5083736;28;19988;-72
2022/10/06 00:48:46;;;;;;;;;;;10.90;99.90;;;;;;5083880;28;19920;-71
2022/10/06 00:51:14;;;;;;;;;;;10.80;99.90;;;;;;5084186;28;20096;-71
2022/10/06 00:53:41;;;;;;;;;;;10.80;99.90;;;;;;5083675;28;19927;-73
2022/10/06 00:56:07;;;;;;;;;;;10.70;99.90;;;;;;5083325;28;20215;-71
2022/10/06 00:58:34;;;;;;;;;;;10.70;99.90;;;;;;5083316;28;19983;-71
2022/10/06 01:01:01;;;;;;;;;;;10.70;99.90;;;;;;5066896;28;19920;-73
2022/10/06 01:03:29;;;;;;;;;;;10.70;99.90;;;;;;5083772;28;19983;-71
2022/10/06 01:05:57;;;;;;;;;;;10.70;99.90;;;;;;5083554;28;19920;-72
2022/10/06 01:08:25;;;;;;;;;;;10.70;99.90;;;;;;5083872;28;19920;-73
2022/10/06 01:10:52;;;;;;;;;;;10.70;99.90;;;;;;5083809;28;19956;-73
2022/10/06 01:13:19;;;;;;;;;;;10.70;99.90;;;;;;5083564;28;19926;-72
2022/10/06 01:15:49;;;;;;;;;;;10.70;99.90;;;;;;5083523;28;19956;-73
2022/10/06 01:18:17;;;;;;;;;;;10.60;99.90;;;;;;5083551;28;19952;-72
2022/10/06 01:20:45;;;;;;;;;;;10.60;99.90;;;;;;5063530;28;19956;-72
2022/10/06 01:23:13;;;;;;;;;;;10.50;99.90;;;;;;5063161;28;19921;-71
2022/10/06 01:25:40;;;;;;;;;;;10.50;99.90;;;;;;5063152;28;19920;-71
2022/10/06 01:28:08;;;;;;;;;;;10.50;99.90;;;;;;5063298;28;19921;-71
2022/10/06 01:30:37;;;;;;;;;;;10.40;99.90;;;;;;5063527;28;19920;-73
2022/10/06 01:33:04;;;;;;;;;;;10.40;99.90;;;;;;5063451;28;19920;-71
2022/10/06 01:35:30;;;;;;;;;;;10.40;99.90;;;;;;5073882;28;19921;-71
2022/10/06 01:37:58;;;;;;;;;;;10.40;99.90;;;;;;5083430;28;20019;-71
2022/10/06 01:40:28;;;;;;;;;;;10.40;99.90;;;;;;5063513;28;19920;-72
2022/10/06 01:42:54;;;;;;;;;;;10.40;99.90;;;;;;5075360;28;19920;-71
2022/10/06 01:45:21;;;;;;;;;;;10.40;99.90;;;;;;5082827;28;19991;-71
2022/10/06 01:47:47;;;;;;;;;;;10.30;99.90;;;;;;5082711;28;19984;-71
2022/10/06 01:50:14;;;;;;;;;;;10.30;99.90;;;;;;5083219;28;20104;-71
2022/10/06 01:52:41;;;;;;;;;;;10.30;99.90;;;;;;5082907;28;20116;-72
2022/10/06 01:55:08;;;;;;;;;;;10.30;99.90;;;;;;5082737;28;19927;-70
2022/10/06 01:57:39;;;;;;;;;;;10.40;99.90;;;;;;5083155;28;19920;-73
2022/10/06 02:00:06;;;;;;;;;;;10.40;99.90;;;;;;5083125;28;19920;-73
2022/10/06 02:02:33;;;;;;;;;;;10.50;99.90;;;;;;5083222;28;19920;-71
2022/10/06 02:05:00;;;;;;;;;;;10.50;99.90;;;;;;5082942;28;20093;-71
2022/10/06 02:07:26;;;;;;;;;;;10.60;99.90;;;;;;5083080;28;19927;-71
2022/10/06 02:09:53;;;;;;;;;;;10.60;99.90;;;;;;5063028;28;19920;-71
2022/10/06 02:12:20;;;;;;;;;;;10.60;99.90;;;;;;5075737;28;19951;-71
2022/10/06 02:14:47;;;;;;;;;;;10.60;99.90;;;;;;5086138;28;19937;-71
2022/10/06 02:17:14;;;;;;;;;;;10.70;99.90;;;;;;5086775;28;19927;-71
2022/10/06 02:19:41;;;;;;;;;;;10.60;99.90;;;;;;5086743;28;19920;-71
2022/10/06 02:22:07;;;;;;;;;;;10.70;99.90;;;;;;5086939;28;20160;-72
2022/10/06 02:24:34;;;;;;;;;;;10.70;99.90;;;;;;5086083;28;19983;-72
2022/10/06 02:27:01;;;;;;;;;;;10.80;99.90;;;;;;5086369;28;19942;-72
2022/10/06 02:29:27;;;;;;;;;;;10.80;99.90;;;;;;5086372;28;19983;-71
2022/10/06 02:31:55;;;;;;;;;;;10.80;99.90;;;;;;5086819;28;19920;-71
2022/10/06 02:34:22;;;;;;;;;;;10.80;99.90;;;;;;5086612;28;19958;-71
2022/10/06 02:36:48;;;;;;;;;;;10.90;99.90;;;;;;5086343;28;19927;-71
2022/10/06 02:39:15;;;;;;;;;;;10.80;99.90;;;;;;5086512;28;20251;-71
2022/10/06 02:41:42;;;;;;;;;;;10.80;99.90;;;;;;5086222;28;19921;-72
2022/10/06 02:44:08;;;;;;;;;;;10.80;99.90;;;;;;5086385;28;19927;-71
2022/10/06 02:46:35;;;;;;;;;;;10.80;99.90;;;;;;5085814;28;19920;-72
2022/10/06 02:49:03;;;;;;;;;;;10.80;99.90;;;;;;5086011;28;20230;-75
2022/10/06 02:51:31;;;;;;;;;;;10.70;99.90;;;;;;5086426;28;19953;-73
2022/10/06 02:53:57;;;;;;;;;;;10.70;99.90;;;;;;5086086;28;19921;-73
2022/10/06 02:56:25;;;;;;;;;;;10.70;99.90;;;;;;5085569;28;20358;-73
2022/10/06 02:58:52;;;;;;;;;;;10.70;99.90;;;;;;5086346;28;19920;-73
2022/10/06 03:01:20;;;;;;;;;;;10.60;99.90;;;;;;5085673;28;19921;-75
2022/10/06 03:03:46;;;;;;;;;;;10.70;99.90;;;;;;5085667;28;20204;-73
2022/10/06 03:06:21;;;;;;;;;;;10.70;99.90;;;;;;5085692;28;19920;-73
2022/10/06 03:08:49;;;;;;;;;;;10.70;99.90;;;;;;5085833;28;20140;-74
2022/10/06 03:11:15;;;;;;;;;;;10.70;99.90;;;;;;5085982;28;19924;-75
2022/10/06 03:13:42;;;;;;;;;;;10.70;99.90;;;;;;5085453;28;20119;-73
2022/10/06 03:16:14;;;;;;;;;;;10.70;99.90;;;;;;5085357;28;19952;-73
2022/10/06 03:18:42;;;;;;;;;;;10.70;99.90;;;;;;5085743;28;19920;-73
2022/10/06 03:21:09;;;;;;;;;;;10.80;99.90;;;;;;5085568;28;19920;-73
2022/10/06 03:23:37;;;;;;;;;;;10.70;99.90;;;;;;5089160;22;19940;-70
2022/10/06 03:26:03;;;;;;;;;;;10.70;99.90;;;;;;5065217;28;19935;-71
2022/10/06 03:28:30;;;;;;;;;;;10.70;99.90;;;;;;5064871;28;19992;-72
2022/10/06 03:31:00;;;;;;;;;;;10.70;99.90;;;;;;5064906;28;19988;-71
2022/10/06 03:33:27;;;;;;;;;;;10.70;99.90;;;;;;5064873;28;19921;-70
2022/10/06 03:35:58;;;;;;;;;;;10.70;99.90;;;;;;5064481;28;19988;-71
2022/10/06 03:38:25;;;;;;;;;;;10.70;99.90;;;;;;5065321;28;19943;-71
2022/10/06 03:40:53;;;;;;;;;;;10.70;99.90;;;;;;5064521;28;19944;-71
2022/10/06 03:43:19;;;;;;;;;;;10.80;99.90;;;;;;5061146;28;19967;-72
2022/10/06 03:45:55;;;;;;;;;;;10.70;99.90;;;;;;5064093;28;19927;-71
2022/10/06 03:48:22;;;;;;;;;;;10.70;99.90;;;;;;5064423;28;19920;-71
2022/10/06 03:50:53;;;;;;;;;;;10.70;99.90;;;;;;5064888;28;19927;-70
2022/10/06 03:53:24;;;;;;;;;;;10.70;99.90;;;;;;5064367;28;19927;-70
2022/10/06 03:55:58;;;;;;;;;;;10.70;99.90;;;;;;5064472;28;19967;-71
2022/10/06 03:58:24;;;;;;;;;;;10.80;99.90;;;;;;5064865;28;20103;-71
2022/10/06 04:00:57;;;;;;;;;;;10.80;99.90;;;;;;5064132;28;19988;-72
2022/10/06 04:03:24;;;;;;;;;;;10.90;99.90;;;;;;5064357;28;19943;-71
2022/10/06 04:05:54;;;;;;;;;;;11.00;99.90;;;;;;5063905;28;19988;-71
2022/10/06 04:08:20;;;;;;;;;;;11.00;99.90;;;;;;5063924;28;19984;-71
2022/10/06 04:10:47;;;;;;;;;;;11.00;99.90;;;;;;5063156;28;19987;-72
2022/10/06 04:13:17;;;;;;;;;;;11.00;99.90;;;;;;5063548;28;20263;-71
2022/10/06 04:15:43;;;;;;;;;;;11.00;99.90;;;;;;5063902;28;19935;-71
2022/10/06 04:18:10;;;;;;;;;;;11.00;99.90;;;;;;5064355;28;19966;-71
2022/10/06 04:20:37;;;;;;;;;;;11.00;99.90;;;;;;5064064;28;19955;-71
2022/10/06 04:23:04;;;;;;;;;;;11.10;99.90;;;;;;5064076;28;20262;-71
2022/10/06 04:25:31;;;;;;;;;;;11.10;99.90;;;;;;5063587;28;20119;-70
2022/10/06 04:27:58;;;;;;;;;;;11.20;99.90;;;;;;5063934;28;20094;-72
2022/10/06 04:30:26;;;;;;;;;;;11.30;99.90;;;;;;5063883;28;20204;-70
2022/10/06 04:32:53;;;;;;;;;;;11.40;99.90;;;;;;5062861;28;19921;-71
2022/10/06 04:35:20;;;;;;;;;;;11.50;99.90;;;;;;5062958;28;19943;-71
2022/10/06 04:37:47;;;;;;;;;;;11.50;99.90;;;;;;5063343;28;20234;-70
2022/10/06 04:40:13;;;;;;;;;;;11.50;99.90;;;;;;5063370;28;19921;-70
2022/10/06 04:42:40;;;;;;;;;;;11.40;99.90;;;;;;5059138;28;19935;-71
2022/10/06 04:45:07;;;;;;;;;;;11.40;99.90;;;;;;5062274;28;20163;-71
2022/10/06 04:47:35;;;;;;;;;;;11.40;99.90;;;;;;5063465;28;19921;-71
2022/10/06 04:50:02;;;;;;;;;;;11.30;99.90;;;;;;5063474;28;19956;-71
2022/10/06 04:52:29;;;;;;;;;;;11.30;99.90;;;;;;5060236;28;20007;-71
2022/10/06 04:54:56;;;;;;;;;;;11.30;99.90;;;;;;5062403;28;19985;-71
2022/10/06 04:57:23;;;;;;;;;;;11.20;99.90;;;;;;5063113;28;19928;-71
2022/10/06 05:02:33;;;;;;;;;;;11.10;99.90;;;;;;5060848;28;19923;-71
2022/10/06 05:05:01;;;;;;;;;;;11.00;99.90;;;;;;5059270;28;19929;-71
2022/10/06 05:07:28;;;;;;;;;;;11.00;99.90;;;;;;5060802;28;19921;-71
2022/10/06 05:09:55;;;;;;;;;;;11.00;99.90;;;;;;5061990;28;19921;-72
2022/10/06 05:12:21;;;;;;;;;;;11.00;99.90;;;;;;5061978;28;20115;-71
2022/10/06 05:14:48;;;;;;;;;;;11.00;99.90;;;;;;5063054;28;19984;-71
2022/10/06 05:17:14;;;;;;;;;;;11.00;99.90;;;;;;5063128;28;20119;-71
2022/10/06 05:19:41;;;;;;;;;;;11.00;99.90;;;;;;5063795;28;19920;-71
2022/10/06 05:22:09;;;;;;;;;;;11.00;99.90;;;;;;5063382;28;19976;-72
2022/10/06 05:24:35;;;;;;;;;;;11.00;99.90;;;;;;5063303;28;19920;-71
2022/10/06 05:27:02;;;;;;;;;;;11.00;99.90;;;;;;5063360;28;19921;-74
2022/10/06 05:29:29;;;;;;;;;;;11.10;99.90;;;;;;5063294;28;19925;-69
2022/10/06 05:31:55;;;;;;;;;;;11.10;99.90;;;;;;5063340;28;19984;-71
2022/10/06 05:34:22;;;;;;;;;;;11.10;99.90;;;;;;5063440;28;19921;-70
2022/10/06 05:36:49;;;;;;;;;;;11.20;99.90;;;;;;5044926;28;19987;-73
2022/10/06 05:39:17;;;;;;;;;;;11.20;99.90;;;;;;5041889;28;19992;-71
2022/10/06 05:41:43;;;;;;;;;;;11.30;99.90;;;;;;5062776;28;19988;-70
2022/10/06 05:44:10;;;;;;;;;;;11.30;99.90;;;;;;5063351;28;19959;-70
2022/10/06 05:46:37;;;;;;;;;;;11.30;99.90;;;;;;5066060;28;19967;-71
2022/10/06 05:49:05;;;;;;;;;;;11.40;99.90;;;;;;5067193;28;19988;-71
2022/10/06 05:51:33;;;;;;;;;;;11.40;99.90;;;;;;5066625;28;19976;-71
2022/10/06 05:54:00;;;;;;;;;;;11.40;99.90;;;;;;5066796;28;19927;-71
2022/10/06 05:56:28;;;;;;;;;;;11.50;99.90;;;;;;5066710;28;19921;-72
2022/10/06 05:58:55;;;;;;;;;;;11.50;99.90;;;;;;5066716;28;19921;-71
2022/10/06 06:01:23;;;;;;;;;;;11.60;99.90;;;;;;5066308;28;20135;-70
2022/10/06 06:03:50;;;;;;;;;;;11.80;99.90;;;;;;5066059;28;19984;-71
2022/10/06 06:06:18;;;;;;;;;;;11.90;99.90;;;;;;5065918;28;20283;-71
2022/10/06 06:08:44;;;;;;;;;;;12.10;99.90;;;;;;5066024;28;19924;-71
2022/10/06 06:11:11;;;;;;;;;;;12.20;99.90;;;;;;5066533;28;19928;-71
2022/10/06 06:13:39;;;;;;;;;;;12.40;99.90;;;;;;5066316;28;20314;-70
2022/10/06 06:16:06;;;;;;;;;;;12.50;99.90;;;;;;5066053;28;20043;-71
2022/10/06 06:18:33;;;;;;;;;;;12.60;99.90;;;;;;5066371;28;20195;-72
2022/10/06 06:21:00;;;;;;;;;;;12.80;99.90;;;;;;5066606;28;19927;-74
2022/10/06 06:23:30;;;;;;;;;;;12.80;99.90;;;;;;5065749;28;20210;-71
2022/10/06 06:25:59;;;;;;;;;;;12.90;99.90;;;;;;5066009;28;20141;-71
2022/10/06 06:28:27;;;;;;;;;;;13.00;99.90;;;;;;5066643;28;20227;-70
2022/10/06 06:31:02;;;;;;;;;;;13.10;99.90;;;;;;5051334;28;19952;-71
2022/10/06 06:33:29;;;;;;;;;;;13.20;99.90;;;;;;5066564;28;19921;-71
2022/10/06 06:36:02;;;;;;;;;;;13.20;99.90;;;;;;5065107;28;19927;-71
2022/10/06 06:38:29;;;;;;;;;;;13.30;99.90;;;;;;5066634;28;19920;-71
2022/10/06 06:40:55;;;;;;;;;;;13.40;99.90;;;;;;5066463;28;20246;-71
2022/10/06 06:43:22;;;;;;;;;;;13.50;99.90;;;;;;5066399;28;19956;-70
2022/10/06 06:45:49;;;;;;;;;;;13.60;99.90;;;;;;5066004;28;19921;-70
2022/10/06 06:48:17;;;;;;;;;;;13.60;99.90;;;;;;5066412;28;20147;-73
2022/10/06 06:50:44;;;;;;;;;;;13.60;99.90;;;;;;5066153;28;19921;-72
2022/10/06 06:53:12;;;;;;;;;;;13.70;99.90;;;;;;5066282;28;20101;-71
2022/10/06 06:55:49;;;;;;;;;;;13.70;99.90;;;;;;5065819;28;19920;-71
2022/10/06 06:58:15;;;;;;;;;;;13.70;99.90;;;;;;5066531;28;19921;-71
2022/10/06 07:00:42;;;;;;;;;;;13.80;99.90;;;;;;5065999;28;20093;-71
2022/10/06 07:03:11;;;;;;;;;;;13.80;99.90;;;;;;5066128;28;19921;-70
2022/10/06 07:05:39;;;;;;;;;;;13.80;99.90;;;;;;5065482;28;19937;-71
2022/10/06 07:08:07;;;;;;;;;;;13.80;99.90;;;;;;5065961;28;20327;-72
2022/10/06 07:10:34;;;;;;;;;;;13.80;99.90;;;;;;5066175;28;19920;-71
2022/10/06 07:13:01;;;;;;;;;;;13.80;99.90;;;;;;5065976;28;19992;-70
2022/10/06 07:26:27;;;;;;;;;;;13.70;99.90;;;;;;5065493;28;19927;-71
2022/10/06 07:28:53;;;;;;;;;;;13.60;99.90;;;;;;5065814;28;19924;-71
2022/10/06 07:31:20;;;;;;;;;;;13.60;99.90;;;;;;5065655;28;19921;-71
2022/10/06 07:33:48;;;;;;;;;;;13.50;99.90;;;;;;5064380;28;19920;-71
2022/10/06 07:36:17;;;;;;;;;;;13.50;99.90;;;;;;5065496;28;19927;-71
2022/10/06 07:38:43;;;;;;;;;;;13.50;99.90;;;;;;5065611;28;19928;-71
2022/10/06 07:41:10;;;;;;;;;;;13.40;99.90;;;;;;5065675;28;20086;-71
2022/10/06 07:43:37;;;;;;;;;;;13.40;99.90;;;;;;5065064;28;20187;-71
2022/10/06 07:46:03;;;;;;;;;;;13.40;99.90;;;;;;5065143;28;19987;-71
2022/10/06 07:48:30;;;;;;;;;;;13.40;99.90;;;;;;5065306;28;19980;-71
2022/10/06 07:50:56;;;;;;;;;;;13.40;99.90;;;;;;5065274;28;19983;-71
2022/10/06 07:53:26;;;;;;;;;;;13.40;99.90;;;;;;5064861;28;20177;-71
2022/10/06 07:55:53;;;;;;;;;;;13.40;99.90;;;;;;5064713;28;19921;-71
2022/10/06 07:58:22;;;;;;;;;;;13.40;99.90;;;;;;5063631;28;19921;-70
2022/10/06 08:00:51;;;;;;;;;;;13.40;99.90;;;;;;5064386;28;20216;-70
2022/10/06 08:03:22;;;;;;;;;;;13.40;99.90;;;;;;5064791;28;19921;-71
2022/10/06 08:05:49;;;;;;;;;;;13.40;99.90;;;;;;5060156;28;19921;-71
2022/10/06 08:08:16;;;;;;;;;;;13.30;99.90;;;;;;5057111;28;20271;-71
2022/10/06 08:10:51;;;;;;;;;;;13.30;99.90;;;;;;5063783;28;19984;-71
2022/10/06 08:13:18;;;;;;;;;;;13.30;99.90;;;;;;5064891;28;20000;-71
2022/10/06 08:15:45;;;;;;;;;;;13.40;99.90;;;;;;5064762;28;19971;-71
2022/10/06 08:18:11;;;;;;;;;;;13.40;99.90;;;;;;5064836;28;19928;-71
2022/10/06 08:20:38;;;;;;;;;;;13.40;99.90;;;;;;5064366;28;20307;-71
2022/10/06 08:23:07;;;;;;;;;;;13.40;99.90;;;;;;5064744;28;19965;-71
2022/10/06 08:25:35;;;;;;;;;;;13.50;99.90;;;;;;5064049;28;19963;-70
2022/10/06 08:28:04;;;;;;;;;;;13.60;99.90;;;;;;5064792;28;19921;-71
2022/10/06 08:30:30;;;;;;;;;;;13.70;99.90;;;;;;5064253;28;19921;-71
2022/10/06 08:32:57;;;;;;;;;;;13.70;99.90;;;;;;5064494;28;19988;-71
2022/10/06 08:35:32;;;;;;;;;;;13.70;99.90;;;;;;5063269;28;19927;-71
2022/10/06 08:37:58;;;;;;;;;;;13.80;99.90;;;;;;5064309;28;19920;-70
2022/10/06 08:40:26;;;;;;;;;;;13.80;99.90;;;;;;5064476;28;19927;-70
2022/10/06 08:42:53;;;;;;;;;;;13.80;99.90;;;;;;5064360;28;19920;-70
2022/10/06 08:45:23;;;;;;;;;;;13.90;99.90;;;;;;5063981;28;19960;-71
2022/10/06 08:47:53;;;;;;;;;;;13.90;99.90;;;;;;5064308;28;19945;-71
2022/10/06 08:50:21;;;;;;;;;;;13.90;99.90;;;;;;5064115;28;19983;-71
2022/10/06 08:52:55;;;;;;;;;;;14.00;99.90;;;;;;5063145;28;20266;-71
2022/10/06 08:55:28;;;;;;;;;;;14.00;99.90;;;;;;5063618;28;19927;-70
2022/10/06 08:58:00;;;;;;;;;;;14.00;99.90;;;;;;5063299;28;19920;-71
2022/10/06 09:00:32;;;;;;;;;;;13.90;99.90;;;;;;5063747;28;19921;-72
2022/10/06 09:02:59;;;;;;;;;;;14.00;99.90;;;;;;5063166;28;19967;-71
2022/10/06 09:05:28;;;;;;;;;;;14.10;99.90;;;;;;5062532;28;20196;-70
2022/10/06 09:08:02;;;;;;;;;;;14.10;99.90;;;;;;5055483;28;19920;-70
2022/10/06 09:10:35;;;;;;;;;;;14.20;99.90;;;;;;5063273;28;19927;-71
2022/10/06 09:13:05;;;;;;;;;;;14.10;99.90;;;;;;5062737;28;19920;-71
2022/10/06 09:15:36;;;;;;;;;;;14.20;99.90;;;;;;5063021;28;19920;-71
2022/10/06 09:18:09;;;;;;;;;;;14.20;99.90;;;;;;5063058;28;19921;-71
2022/10/06 09:20:38;;;;;;;;;;;14.30;99.90;;;;;;5063012;28;19928;-71
2022/10/06 09:23:06;;;;;;;;;;;14.40;99.90;;;;;;5063171;28;20119;-71
2022/10/06 09:25:32;;;;;;;;;;;14.40;99.90;;;;;;5108549;22;20119;-74
2022/10/06 09:28:02;;;;;;;;;;;14.30;99.90;;;;;;5102868;28;20134;-74
2022/10/06 09:30:28;;;;;;;;;;;14.40;99.90;;;;;;5103024;28;19920;-74
2022/10/06 09:32:58;;;;;;;;;;;14.40;99.90;;;;;;5103184;28;19920;-74
2022/10/06 09:35:26;;;;;;;;;;;14.40;99.90;;;;;;5102963;28;20203;-75
2022/10/06 09:37:54;;;;;;;;;;;14.50;99.90;;;;;;5103308;28;20114;-73
2022/10/06 09:40:33;;;;;;;;;;;14.50;99.90;;;;;;5103104;28;19924;-73
2022/10/06 09:43:00;;;;;;;;;;;14.70;99.90;;;;;;5093582;28;19927;-75
2022/10/06 09:45:27;;;;;;;;;;;14.80;99.90;;;;;;5090680;28;19979;-74
2022/10/06 09:47:54;;;;;;;;;;;14.90;99.90;;;;;;5098868;28;19920;-75
2022/10/06 09:50:23;;;;;;;;;;;15.10;99.90;;;;;;5101630;28;19927;-75
2022/10/06 09:53:03;;;;;;;;;;;15.20;99.90;;;;;;5103087;28;20139;-75
2022/10/06 09:55:32;;;;;;;;;;;15.30;99.90;;;;;;5102505;28;20191;-75
2022/10/06 09:58:00;;;;;;;;;;;15.50;99.90;;;;;;5102848;28;20260;-75
2022/10/06 10:00:27;;;;;;;;;;;15.60;99.90;;;;;;5103020;28;19932;-75
2022/10/06 10:02:56;;;;;;;;;;;15.70;99.90;;;;;;5102996;28;19920;-75
2022/10/06 10:05:25;;;;;;;;;;;15.80;99.90;;;;;;5098590;28;19920;-75
2022/10/06 10:08:00;;;;;;;;;;;15.90;99.90;;;;;;5094556;28;20110;-74
2022/10/06 10:10:27;;;;;;;;;;;16.00;99.90;;;;;;5095057;28;19983;-74
2022/10/06 10:12:54;;;;;;;;;;;16.10;99.90;;;;;;5083004;28;19921;-75
2022/10/06 10:15:25;;;;;;;;;;;16.00;99.90;;;;;;5082570;28;19920;-74
2022/10/06 10:17:52;;;;;;;;;;;16.00;99.90;;;;;;5096978;28;19927;-74
2022/10/06 10:20:33;;;;;;;;;;;15.90;99.90;;;;;;5103145;28;19979;-74
2022/10/06 10:23:00;;;;;;;;;;;15.80;99.90;;;;;;5102979;28;19920;-74
2022/10/06 10:25:43;;;;;;;;;;;15.70;99.90;;;;;;5102645;28;19920;-73
2022/10/06 10:28:16;;;;;;;;;;;15.70;99.90;;;;;;5086425;28;20226;-73
2022/10/06 10:30:48;;;;;;;;;;;15.70;99.90;;;;;;5102759;28;20023;-73
2022/10/06 10:33:18;;;;;;;;;;;15.60;99.90;;;;;;5106407;28;20283;-74
2022/10/06 10:35:50;;;;;;;;;;;15.60;99.90;;;;;;5105059;28;19951;-73
2022/10/06 10:38:18;;;;;;;;;;;15.50;99.90;;;;;;5106024;28;19920;-74
2022/10/06 10:40:47;;;;;;;;;;;15.60;99.90;;;;;;5105869;28;20184;-72
2022/10/06 10:43:22;;;;;;;;;;;15.70;99.90;;;;;;5106476;28;19939;-72
2022/10/06 10:45:50;;;;;;;;;;;15.70;99.90;;;;;;5106065;28;19920;-73
2022/10/06 10:48:21;;;;;;;;;;;15.80;99.90;;;;;;5106478;28;19920;-73
2022/10/06 10:50:50;;;;;;;;;;;16.00;99.90;;;;;;5105698;28;19995;-73
2022/10/06 10:53:20;;;;;;;;;;;16.20;99.90;;;;;;5106141;28;19982;-73
2022/10/06 10:55:48;;;;;;;;;;;16.50;99.90;;;;;;5105550;28;19920;-73
2022/10/06 10:58:18;;;;;;;;;;;16.80;99.90;;;;;;5106212;28;19920;-74
2022/10/06 11:00:47;;;;;;;;;;;17.10;99.90;;;;;;5106303;28;20225;-72
2022/10/06 11:03:13;;;;;;;;;;;17.40;99.90;;;;;;5103220;28;20100;-74
2022/10/06 11:05:50;;;;;;;;;;;17.60;99.90;;;;;;5098969;28;20159;-73
2022/10/06 11:08:24;;;;;;;;;;;17.80;99.90;;;;;;5092326;28;20204;-74
2022/10/06 11:10:53;;;;;;;;;;;18.00;99.90;;;;;;5094311;28;19920;-73
2022/10/06 11:13:25;;;;;;;;;;;18.10;99.90;;;;;;5090196;28;19952;-73
2022/10/06 11:16:03;;;;;;;;;;;18.20;99.90;;;;;;5104287;28;20138;-74
2022/10/06 11:18:37;;;;;;;;;;;18.40;99.90;;;;;;5104074;28;20229;-74
2022/10/06 11:21:07;;;;;;;;;;;18.40;99.90;;;;;;5105697;28;19926;-74
2022/10/06 11:23:39;;;;;;;;;;;18.40;99.90;;;;;;5106007;28;19927;-74
2022/10/06 11:26:08;;;;;;;;;;;18.50;99.90;;;;;;5105120;28;19920;-74
2022/10/06 11:28:39;;;;;;;;;;;18.40;99.90;;;;;;5104892;28;20261;-74
2022/10/06 11:31:10;;;;;;;;;;;18.10;99.90;;;;;;5105244;28;19926;-75
2022/10/06 11:33:39;;;;;;;;;;;17.80;99.90;;;;;;5104982;28;19919;-75
2022/10/06 11:36:08;;;;;;;;;;;17.70;99.90;;;;;;5095139;28;19980;-74
2022/10/06 11:38:39;;;;;;;;;;;17.70;99.90;;;;;;5094757;28;19983;-75
2022/10/06 11:41:10;;;;;;;;;;;17.80;99.90;;;;;;5098399;28;19920;-74
2022/10/06 11:43:39;;;;;;;;;;;18.00;99.90;;;;;;5103234;28;20123;-74
2022/10/06 11:46:10;;;;;;;;;;;18.40;99.90;;;;;;5104749;28;19946;-74
2022/10/06 11:48:36;;;;;;;;;;;18.60;99.90;;;;;;5100154;28;20178;-74
2022/10/06 11:51:22;;;;;;;;;;;18.60;99.90;;;;;;5104776;28;19958;-74
2022/10/06 11:53:49;;;;;;;;;;;18.50;99.90;;;;;;5097029;28;19991;-74
2022/10/06 11:56:35;;;;;;;;;;;18.40;99.90;;;;;;5105843;28;19920;-74
2022/10/06 11:59:08;;;;;;;;;;;18.20;99.90;;;;;;5104185;28;19926;-74
2022/10/06 12:01:51;;;;;;;;;;;18.00;99.90;;;;;;5102682;28;20177;-74
2022/10/06 12:04:18;;;;;;;;;;;17.80;99.90;;;;;;5104447;28;19983;-74
2022/10/06 12:06:51;;;;;;;;;;;17.70;99.90;;;;;;5104448;28;19955;-74
2022/10/06 12:09:36;;;;;;;;;;;17.60;99.90;;;;;;5103572;28;19979;-74
2022/10/06 12:12:25;;;;;;;;;;;17.40;99.90;;;;;;5076229;28;19926;-74
2022/10/06 12:14:54;;;;;;;;;;;17.30;99.90;;;;;;5094668;28;19951;-74
2022/10/06 12:17:23;;;;;;;;;;;17.20;99.90;;;;;;5094406;28;19974;-74
2022/10/06 12:19:54;;;;;;;;;;;17.30;99.90;;;;;;5100025;28;20122;-74
2022/10/06 12:22:23;;;;;;;;;;;17.20;99.90;;;;;;5104483;28;20170;-75
2022/10/06 12:24:54;;;;;;;;;;;17.10;99.90;;;;;;5103391;28;19932;-75
2022/10/06 12:27:27;;;;;;;;;;;17.20;99.90;;;;;;5103763;28;19928;-74
2022/10/06 12:29:57;;;;;;;;;;;17.50;99.90;;;;;;5101770;28;19920;-73
2022/10/06 12:32:31;;;;;;;;;;;17.80;99.90;;;;;;5103902;28;19979;-74
2022/10/06 12:35:02;;;;;;;;;;;18.00;99.90;;;;;;5103714;28;19920;-75
2022/10/06 12:37:48;;;;;;;;;;;18.20;99.90;;;;;;5110302;28;19920;-75
2022/10/06 12:40:34;;;;;;;;;;;18.50;99.90;;;;;;5103574;28;20235;-74
2022/10/06 12:43:24;;;;;;;;;;;19.00;99.90;;;;;;5104139;28;19920;-74
2022/10/06 12:45:56;;;;;;;;;;;19.40;99.90;;;;;;5087581;28;20259;-73
2022/10/06 12:48:25;;;;;;;;;;;19.90;99.90;;;;;;5103738;28;19962;-73
2022/10/06 12:50:56;;;;;;;;;;;20.00;99.90;;;;;;5103403;28;19920;-74
2022/10/06 12:53:24;;;;;;;;;;;20.00;99.90;;;;;;5103675;28;19958;-73
2022/10/06 12:55:52;;;;;;;;;;;20.00;99.90;;;;;;5103304;28;19982;-74
2022/10/06 12:58:19;;;;;;;;;;;19.80;99.90;;;;;;5104110;28;19920;-74
2022/10/06 13:00:47;;;;;;;;;;;19.60;99.90;;;;;;5103841;28;19996;-74
2022/10/06 13:03:17;;;;;;;;;;;19.40;99.90;;;;;;5098180;28;20156;-74
2022/10/06 13:05:49;;;;;;;;;;;19.40;99.90;;;;;;5095546;28;20101;-75
2022/10/06 13:08:20;;;;;;;;;;;19.60;99.90;;;;;;5092471;28;19920;-75
2022/10/06 13:10:47;;;;;;;;;;;19.90;99.90;;;;;;5103395;28;19920;-75
2022/10/06 13:13:23;;;;;;;;;;;20.10;99.90;;;;;;5095637;28;20294;-75
2022/10/06 13:15:50;;;;;;;;;;;20.30;99.90;;;;;;5094831;28;19920;-75
2022/10/06 13:18:18;;;;;;;;;;;20.70;99.90;;;;;;5103458;28;19990;-75
2022/10/06 13:20:47;;;;;;;;;;;20.80;99.90;;;;;;5094951;28;19920;-72
2022/10/06 13:23:20;;;;;;;;;;;21.10;99.90;;;;;;5102853;28;20218;-75
2022/10/06 13:25:48;;;;;;;;;;;21.40;99.90;;;;;;5102375;28;20200;-75
2022/10/06 13:28:21;;;;;;;;;;;21.70;99.90;;;;;;5102302;28;19987;-76
2022/10/06 13:30:55;;;;;;;;;;;21.90;99.90;;;;;;5102645;28;19926;-75
2022/10/06 13:33:25;;;;;;;;;;;21.90;99.90;;;;;;5102804;28;19927;-73
2022/10/06 13:35:53;;;;;;;;;;;22.10;99.90;;;;;;5102571;28;19920;-75
2022/10/06 13:38:19;;;;;;;;;;;22.20;99.90;;;;;;5103120;28;20237;-76
2022/10/06 13:41:01;;;;;;;;;;;22.00;99.90;;;;;;5103149;28;20254;-75
2022/10/06 13:43:27;;;;;;;;;;;22.00;99.90;;;;;;5103300;28;19920;-73
2022/10/06 13:45:56;;;;;;;;;;;22.10;99.90;;;;;;5101704;28;19920;-70
2022/10/06 13:48:24;;;;;;;;;;;22.30;99.90;;;;;;5097330;28;19927;-70
2022/10/06 13:50:51;;;;;;;;;;;22.40;99.90;;;;;;5101479;28;20229;-70
2022/10/06 13:53:25;;;;;;;;;;;22.50;99.90;;;;;;5100169;28;19959;-70
2022/10/06 13:55:53;;;;;;;;;;;22.50;99.90;;;;;;5089302;28;19990;-71
2022/10/06 13:58:21;;;;;;;;;;;22.40;99.90;;;;;;5098188;28;19991;-70
2022/10/06 14:00:50;;;;;;;;;;;22.10;99.90;;;;;;5100116;28;20261;-71
2022/10/06 14:03:21;;;;;;;;;;;21.90;99.90;;;;;;5103446;28;19967;-71
2022/10/06 14:05:50;;;;;;;;;;;21.90;99.90;;;;;;5103445;28;19958;-71
2022/10/06 14:08:22;;;;;;;;;;;21.90;99.90;;;;;;5107381;28;19987;-70
2022/10/06 14:10:50;;;;;;;;;;;22.00;99.90;;;;;;5107560;28;19926;-71
2022/10/06 14:13:18;;;;;;;;;;;22.10;99.90;;;;;;5107190;28;19920;-70
2022/10/06 14:15:47;;;;;;;;;;;22.30;99.90;;;;;;5106753;28;19987;-70
2022/10/06 14:18:18;;;;;;;;;;;22.30;99.90;;;;;;5106830;28;19920;-72
2022/10/06 14:20:45;;;;;;;;;;;22.30;99.90;;;;;;5101404;28;19940;-71
2022/10/06 14:23:31;;;;;;;;;;;22.00;99.90;;;;;;5099553;28;19928;-71
2022/10/06 14:25:59;;;;;;;;;;;21.80;99.90;;;;;;5093435;28;19951;-70
2022/10/06 14:28:25;;;;;;;;;;;21.70;99.90;;;;;;5093832;28;19920;-71
2022/10/06 14:30:52;;;;;;;;;;;21.70;99.90;;;;;;5106865;28;19986;-71
2022/10/06 14:33:19;;;;;;;;;;;21.70;99.90;;;;;;5106488;28;19921;-72
2022/10/06 14:35:45;;;;;;;;;;;21.60;99.90;;;;;;5097551;28;19920;-71
2022/10/06 14:38:12;;;;;;;;;;;21.70;99.90;;;;;;5100074;28;19987;-71
2022/10/06 14:40:40;;;;;;;;;;;21.80;99.90;;;;;;5096860;28;19992;-70